EGPI/ILY METAR and TAF weather

Enter ICAO airport designator
Station Type Date Time Source
EGPI METAR 2021/09/24 00:20 UTC NOAA

EGPI 240020Z AUTO 20010KT 6000 -DZ BKN007/// BKN015/// 13/12 Q1011


Station Type Date Time Source
EGPI Decoded METAR 2021/09/24 00:20 UTC NOAA

Islay, United Kingdom (EGPI) 55-40-55N 006-15-24W
Sep 23, 2021 - 08:20 PM EDT / 2021.09.24 0020 UTC
Wind: from the SSW (200 degrees) at 12 MPH (10 KT):0
Visibility: 3 mile(s):0
Sky conditions: mostly cloudy
Weather: light drizzle
Temperature: 55 F (13 C)
Dew Point: 53 F (12 C)
Relative Humidity: 93%
Pressure (altimeter): 29.85 in. Hg (1011 hPa)
ob: EGPI 240020Z AUTO 20010KT 6000 -DZ BKN007/// BKN015/// 13/12 Q1011
cycle: 0

Station Type Date Time Source
EGPI TAF UTC NOAA

Error!

Example: see airport list